This is the latest recevied weather packets stored in our database for station/object JR4VEV-13. If no packets are shown the sender has not sent any weather packets the latest 10 day(s).
| Time | Temp. | Humidity | Pressure | Rain* | Wind** | Luminosity | Snow |
|---|---|---|---|---|---|---|---|
| 1777608178 | 18.89° C | 59% | 1001.5 hPa | 0 mm | - | - | - |
| 1777607578 | 18.89° C | 60% | 1001.6 hPa | 0 mm | - | - | - |
| 1777606979 | 18.33° C | 61% | 1001.7 hPa | 0 mm | - | - | - |
| 1777606379 | 18.89° C | 58% | 1001.7 hPa | 0 mm | - | - | - |
| 1777605778 | 19.44° C | 57% | 1001.9 hPa | 0 mm | - | - | - |
| 1777605177 | 19.44° C | 54% | 1002 hPa | 0 mm | - | - | - |
| 1777604577 | 19.44° C | 57% | 1002.2 hPa | 0 mm | - | - | - |
| 1777603979 | 20° C | 57% | 1002.2 hPa | 0 mm | - | - | - |
| 1777603379 | 18.89° C | 61% | 1002.2 hPa | 0 mm | - | - | - |
| 1777602779 | 18.89° C | 62% | 1002.1 hPa | 0 mm | - | - | - |
| 1777602178 | 18.33° C | 67% | 1002.6 hPa | 0 mm | - | - | - |
| 1777601579 | 18.33° C | 66% | 1002.5 hPa | 0 mm | - | - | - |
| 1777600978 | 18.33° C | 67% | 1002.5 hPa | 0 mm | - | - | - |
| 1777600378 | 18.89° C | 65% | 1002.6 hPa | 0 mm | - | - | - |
| 1777599778 | 19.44° C | 65% | 1002.7 hPa | 0 mm | - | - | - |
| 1777599178 | 19.44° C | 66% | 1002.9 hPa | 0 mm | - | - | - |
| 1777598577 | 19.44° C | 66% | 1002.8 hPa | 0 mm | - | - | - |
| 1777597979 | 19.44° C | 68% | 1002.7 hPa | 0.25 mm | - | - | - |
| 1777597378 | 18.89° C | 71% | 1002.7 hPa | 0.25 mm | - | - | - |
| 1777596778 | 18.33° C | 76% | 1002.5 hPa | 0.25 mm | - | - | - |
| 1777596177 | 17.78° C | 78% | 1002.8 hPa | 0.25 mm | - | - | - |
| 1777595578 | 17.78° C | 79% | 1002.6 hPa | 0.25 mm | - | - | - |
| 1777594977 | 17.22° C | 82% | 1002.7 hPa | 0.25 mm | - | - | - |
| 1777594379 | 16.67° C | 87% | 1002.6 hPa | 0 mm | - | - | - |
| 1777593777 | 16.11° C | 94% | 1002.9 hPa | 0 mm | - | - | - |
* Rain latest hour (hover to see other rain measurements)
** Current wind speed in m/s (hover to see current wind gust speed)